Time;durP1;ratioP1;P1;durP2;ratioP2;P2;SDS_P1;SDS_P2;PMS_P1;PMS_P2;Temp;Humidity;BMP_temperature;BMP_pressure;BME280_temperature;BME280_humidity;BME280_pressure;Samples;Min_cycle;Max_cycle;Signal;HPM_P1;HPM_P2
2024/04/16 00:01:58;;;;;;;2.15;1.98;;;;;;;5.69;100.00;99264.72;5232427;27;20010;-86
2024/04/16 00:04:24;;;;;;;1.80;1.70;;;;;;;5.60;100.00;99263.06;5212925;27;20020;-86
2024/04/16 00:06:52;;;;;;;4.93;1.85;;;;;;;5.63;100.00;99257.84;5198943;27;20058;-86
2024/04/16 00:09:17;;;;;;;3.88;1.55;;;;;;;5.55;100.00;99259.66;5239748;27;20003;-87
2024/04/16 00:11:46;;;;;;;1.65;1.55;;;;;;;5.53;100.00;99259.69;5240151;27;20000;-84
2024/04/16 00:14:11;;;;;;;1.00;1.00;;;;;;;5.54;100.00;99258.81;5196063;27;20581;-85
2024/04/16 00:16:39;;;;;;;3.05;1.30;;;;;;;5.53;100.00;99267.47;5168945;27;20039;-85
2024/04/16 00:19:05;;;;;;;1.58;1.00;;;;;;;5.58;100.00;99264.81;5183003;27;20008;-86
2024/04/16 00:21:36;;;;;;;0.88;0.70;;;;;;;5.57;100.00;99263.13;5211547;27;20012;-86
2024/04/16 00:24:02;;;;;;;0.70;0.70;;;;;;;5.56;100.00;99259.66;5211652;27;20007;-86
2024/04/16 00:26:30;;;;;;;2.95;1.92;;;;;;;5.57;100.00;99256.19;5211426;27;20090;-85
2024/04/16 00:28:56;;;;;;;1.42;0.80;;;;;;;5.59;100.00;99253.56;5188512;27;20528;-86
2024/04/16 00:31:24;;;;;;;2.45;0.70;;;;;;;5.58;100.00;99233.66;5228910;27;20016;-87
2024/04/16 00:33:50;;;;;;;3.45;0.93;;;;;;;5.56;100.00;99243.22;5158246;27;20046;-84
2024/04/16 00:36:18;;;;;;;1.45;0.88;;;;;;;5.58;100.00;99244.94;5215960;27;20012;-85
2024/04/16 00:38:44;;;;;;;1.08;1.00;;;;;;;5.60;100.00;99242.31;5225067;27;20496;-86
2024/04/16 00:41:12;;;;;;;2.30;0.93;;;;;;;5.58;100.00;99242.34;5186717;27;20026;-86
2024/04/16 00:43:37;;;;;;;0.95;0.82;;;;;;;5.56;100.00;99233.69;5234750;27;20022;-87
2024/04/16 00:46:07;;;;;;;1.00;1.00;;;;;;;5.56;100.00;99233.69;5187102;27;20046;-86
2024/04/16 00:48:33;;;;;;;1.30;1.20;;;;;;;5.58;100.00;99231.06;5213745;27;20044;-85
2024/04/16 00:51:01;;;;;;;3.40;0.65;;;;;;;5.58;100.00;99229.34;5165651;27;20066;-85
2024/04/16 00:53:27;;;;;;;3.08;0.75;;;;;;;5.60;100.00;99229.31;5184652;27;20030;-86
2024/04/16 00:55:58;;;;;;;0.73;0.73;;;;;;;5.60;100.00;99224.13;5183090;27;20012;-86
2024/04/16 00:58:28;;;;;;;1.17;0.80;;;;;;;5.59;100.00;99235.41;5215466;27;20011;-85
2024/04/16 01:00:56;;;;;;;1.40;0.60;;;;;;;5.57;100.00;99226.78;5240644;27;20016;-84
2024/04/16 01:03:21;;;;;;;1.23;1.23;;;;;;;5.54;100.00;99225.09;5237544;27;20670;-86
2024/04/16 01:05:50;;;;;;;0.80;0.80;;;;;;;5.48;100.00;99212.16;5176644;27;20012;-86
2024/04/16 01:08:15;;;;;;;3.75;1.60;;;;;;;5.48;100.00;99222.53;5213217;27;20012;-86
2024/04/16 01:10:44;;;;;;;1.75;1.23;;;;;;;5.45;100.00;99213.06;5217086;27;20012;-86
2024/04/16 01:13:10;;;;;;;1.67;1.10;;;;;;;5.46;100.00;99204.41;5246727;27;20086;-86
2024/04/16 01:15:38;;;;;;;1.38;1.23;;;;;;;5.37;100.00;99206.22;5188476;27;20027;-85
2024/04/16 01:18:07;;;;;;;1.52;1.48;;;;;;;5.35;100.00;99210.59;5221856;27;20023;-85
2024/04/16 01:20:37;;;;;;;8.93;4.47;;;;;;;5.27;100.00;99218.47;5219726;27;20012;-86
2024/04/16 01:23:02;;;;;;;3.53;1.40;;;;;;;5.22;100.00;99202.91;5238850;27;20332;-85
2024/04/16 01:25:35;;;;;;;3.13;1.27;;;;;;;5.22;100.00;99213.31;5253492;27;20047;-86
2024/04/16 01:28:01;;;;;;;3.78;1.30;;;;;;;5.27;100.00;99226.25;5218703;27;20003;-85
2024/04/16 01:30:30;;;;;;;0.98;0.98;;;;;;;5.14;100.00;99223.75;5240864;27;20020;-85
2024/04/16 01:32:55;;;;;;;1.00;0.90;;;;;;;5.06;100.00;99210.00;5189957;27;20030;-85
2024/04/16 01:35:24;;;;;;;3.05;0.90;;;;;;;5.02;100.00;99215.22;5188644;27;20015;-84
2024/04/16 01:37:49;;;;;;;2.13;1.00;;;;;;;5.03;100.00;99216.94;5224710;27;20437;-85
2024/04/16 01:40:18;;;;;;;0.80;0.80;;;;;;;5.02;100.00;99228.19;5213436;27;20020;-84
2024/04/16 01:42:43;;;;;;;2.20;0.90;;;;;;;5.00;100.00;99217.00;5245092;27;20012;-84
2024/04/16 01:45:12;;;;;;;2.38;0.60;;;;;;;5.05;100.00;99217.81;5195459;27;20034;-86
2024/04/16 01:47:37;;;;;;;1.55;1.45;;;;;;;5.01;100.00;99219.56;5188510;27;20034;-85
2024/04/16 01:50:07;;;;;;;2.38;2.05;;;;;;;5.05;100.00;99220.41;5206828;27;20353;-84
2024/04/16 01:52:33;;;;;;;0.98;0.80;;;;;;;4.92;100.00;99212.72;5209649;27;20012;-84
2024/04/16 01:55:01;;;;;;;0.40;0.32;;;;;;;4.83;100.00;99215.41;5182971;27;20095;-85
2024/04/16 01:57:27;;;;;;;0.63;0.40;;;;;;;4.77;100.00;99213.72;5209967;27;20016;-84
2024/04/16 01:59:55;;;;;;;0.30;0.22;;;;;;;4.70;100.00;99212.06;5239064;27;20064;-82
2024/04/16 02:02:21;;;;;;;0.50;0.40;;;;;;;4.66;100.00;99210.34;5237628;27;20074;-84
2024/04/16 02:04:50;;;;;;;0.52;0.52;;;;;;;4.59;100.00;99198.34;5217396;27;20024;-85
2024/04/16 02:07:15;;;;;;;0.43;0.40;;;;;;;4.65;100.00;99203.44;5187638;27;20012;-85
2024/04/16 02:09:44;;;;;;;0.47;0.47;;;;;;;4.59;100.00;99200.94;5177397;27;20044;-85
2024/04/16 02:12:09;;;;;;;0.82;0.60;;;;;;;4.65;100.00;99203.44;5215808;27;20332;-85
2024/04/16 02:14:38;;;;;;;0.38;0.38;;;;;;;4.69;100.00;99201.69;5221138;27;20026;-86
2024/04/16 02:17:03;;;;;;;1.40;0.35;;;;;;;4.71;100.00;99193.03;5182521;27;20015;-86
2024/04/16 02:19:31;;;;;;;2.00;0.98;;;;;;;4.75;100.00;99191.28;5227706;27;20023;-88
2024/04/16 02:21:57;;;;;;;1.05;0.88;;;;;;;4.71;100.00;99181.81;5231941;27;20016;-85
2024/04/16 02:24:26;;;;;;;1.05;1.05;;;;;;;4.69;100.00;99189.59;5240831;27;20011;-83
2024/04/16 02:26:52;;;;;;;1.60;1.50;;;;;;;4.71;100.00;99174.03;5235182;27;20026;-84
2024/04/16 02:29:20;;;;;;;2.33;1.67;;;;;;;4.73;100.00;99173.16;5186400;27;20007;-85
2024/04/16 02:31:46;;;;;;;3.10;1.70;;;;;;;4.74;100.00;99167.06;5187056;27;20439;-86
2024/04/16 02:34:16;;;;;;;2.47;2.25;;;;;;;4.80;100.00;99168.78;5187931;27;20023;-86
2024/04/16 02:36:42;;;;;;;2.92;2.70;;;;;;;4.87;100.00;99157.44;5189828;27;20026;-85
2024/04/16 02:39:10;;;;;;;4.18;2.55;;;;;;;4.87;100.00;99151.41;5202532;27;20004;-86
2024/04/16 02:41:36;;;;;;;3.25;2.60;;;;;;;4.76;100.00;99149.78;5210054;27;20015;-83
2024/04/16 02:44:04;;;;;;;5.05;3.22;;;;;;;4.77;100.00;99148.03;5233884;27;20027;-86
2024/04/16 02:46:29;;;;;;;3.88;3.50;;;;;;;4.85;100.00;99155.75;5186734;27;20019;-87
2024/04/16 02:48:58;;;;;;;4.38;3.25;;;;;;;4.89;100.00;99154.84;5163689;27;20011;-86
2024/04/16 02:51:23;;;;;;;5.13;4.45;;;;;;;4.95;100.00;99147.00;5183098;27;20014;-85
2024/04/16 02:53:53;;;;;;;4.85;4.40;;;;;;;4.99;100.00;99143.50;5185898;27;20007;-85
2024/04/16 02:56:19;;;;;;;6.32;5.05;;;;;;;5.05;100.00;99140.00;5213826;27;20047;-85
2024/04/16 02:58:47;;;;;;;8.25;5.20;;;;;;;5.10;100.00;99140.81;5238369;27;20012;-86
2024/04/16 03:01:13;;;;;;;9.88;6.32;;;;;;;5.13;100.00;99120.00;5239399;27;20012;-86
2024/04/16 03:03:41;;;;;;;8.85;5.20;;;;;;;5.21;100.00;99131.16;5240751;27;20031;-88
2024/04/16 03:06:07;;;;;;;7.35;5.95;;;;;;;5.19;100.00;99132.03;5244510;27;20024;-85
2024/04/16 03:08:35;;;;;;;11.45;6.00;;;;;;;5.30;100.00;99127.59;5221513;27;20023;-86
2024/04/16 03:11:02;;;;;;;10.05;6.25;;;;;;;5.36;100.00;99137.03;5216119;27;20483;-85
2024/04/16 03:13:32;;;;;;;13.38;6.43;;;;;;;5.36;100.00;99132.72;5181189;27;20047;-86
2024/04/16 03:16:06;;;;;;;12.70;5.88;;;;;;;5.41;100.00;99119.66;5187749;27;20918;-85
2024/04/16 03:18:34;;;;;;;9.82;6.63;;;;;;;5.41;100.00;99128.34;5189180;27;20043;-88
2024/04/16 03:21:01;;;;;;;13.90;6.68;;;;;;;5.45;100.00;99132.59;5221179;27;20008;-86
2024/04/16 03:23:29;;;;;;;11.50;6.97;;;;;;;5.44;100.00;99114.47;5158700;27;20012;-85
2024/04/16 03:25:55;;;;;;;10.30;6.50;;;;;;;5.45;100.00;99130.00;5187621;27;20016;-85
2024/04/16 03:28:23;;;;;;;14.65;7.65;;;;;;;5.51;100.00;99128.22;5190544;27;20071;-86
2024/04/16 03:30:50;;;;;;;14.45;6.85;;;;;;;5.49;100.00;99119.56;5214867;27;20031;-86
2024/04/16 03:33:18;;;;;;;12.48;6.50;;;;;;;5.49;100.00;99116.97;5190145;27;20011;-84
2024/04/16 03:35:44;;;;;;;11.20;6.53;;;;;;;5.59;100.00;99114.25;5236583;27;20007;-85
2024/04/16 03:38:12;;;;;;;9.35;6.00;;;;;;;5.58;100.00;99101.28;5209990;27;20022;-83
2024/04/16 03:40:40;;;;;;;11.80;6.70;;;;;;;5.53;100.00;99101.34;5191685;27;20019;-85
2024/04/16 03:43:10;;;;;;;8.00;5.40;;;;;;;5.56;100.00;99121.22;5215234;27;20924;-86
2024/04/16 03:45:36;;;;;;;8.32;5.28;;;;;;;5.60;100.00;99125.50;5227886;27;20424;-84
2024/04/16 03:48:04;;;;;;;7.35;5.22;;;;;;;5.58;100.00;99129.84;5216238;27;20012;-85
2024/04/16 03:50:29;;;;;;;10.43;5.15;;;;;;;5.50;100.00;99118.69;5246743;27;20004;-86
2024/04/16 03:53:04;;;;;;;8.90;4.65;;;;;;;5.44;100.00;99127.44;5220853;27;20023;-86
2024/04/16 03:55:32;;;;;;;9.20;4.63;;;;;;;5.35;100.00;99143.97;5218842;27;20014;-86
2024/04/16 03:58:05;;;;;;;5.82;4.13;;;;;;;5.18;100.00;99128.59;5186524;27;20353;-86
2024/04/16 04:03:26;;;;;;;9.10;4.05;;;;;;;4.90;100.00;99148.78;5208517;27;20000;-85
2024/04/16 04:05:58;;;;;;;7.43;4.45;;;;;;;4.87;100.00;99141.91;5195782;27;20544;-85
2024/04/16 04:08:24;;;;;;;7.15;4.35;;;;;;;4.79;100.00;99146.31;5190546;27;20023;-86
2024/04/16 04:10:52;;;;;;;6.00;4.25;;;;;;;4.78;100.00;99144.59;5210981;27;20019;-84
2024/04/16 04:13:18;;;;;;;8.10;4.32;;;;;;;4.80;100.00;99145.44;5183704;27;20613;-84
2024/04/16 04:15:47;;;;;;;6.95;4.35;;;;;;;4.83;100.00;99142.81;5197745;27;20039;-86
2024/04/16 04:18:13;;;;;;;8.70;4.50;;;;;;;4.91;100.00;99145.31;5188995;27;20003;-84
2024/04/16 04:20:51;;;;;;;;;;;;;;;;;;;;;
2024/04/16 04:23:17;;;;;;;9.15;5.25;;;;;;;5.02;100.00;99143.50;5191585;27;20015;-86
2024/04/16 04:25:48;;;;;;;6.05;4.82;;;;;;;5.06;100.00;99147.75;5211392;27;20016;-86
2024/04/16 04:28:13;;;;;;;13.23;6.00;;;;;;;5.08;100.00;99147.75;5208965;27;20026;-84
2024/04/16 04:30:44;;;;;;;14.77;6.15;;;;;;;5.12;100.00;99146.81;5200433;27;20016;-86
2024/04/16 04:33:10;;;;;;;17.90;6.43;;;;;;;5.18;100.00;99140.72;5196968;27;20094;-86
2024/04/16 04:35:40;;;;;;;13.35;6.32;;;;;;;5.19;100.00;99145.00;5219294;27;20024;-86
2024/04/16 04:38:05;;;;;;;8.77;5.40;;;;;;;5.18;100.00;99144.16;5230043;27;20007;-87
2024/04/16 04:40:36;;;;;;;6.82;4.57;;;;;;;5.20;100.00;99137.25;5192620;27;20007;-84
2024/04/16 04:43:04;;;;;;;14.32;4.88;;;;;;;5.33;100.00;99145.72;5188901;27;20090;-85
2024/04/16 04:45:32;;;;;;;19.35;5.43;;;;;;;5.36;100.00;99145.69;5190754;27;20020;-86
2024/04/16 04:47:58;;;;;;;12.68;6.65;;;;;;;5.37;100.00;99147.41;5201277;27;20041;-86
2024/04/16 04:50:27;;;;;;;9.60;5.50;;;;;;;5.44;100.00;99148.19;5213589;27;20030;-85
2024/04/16 04:52:53;;;;;;;6.97;4.10;;;;;;;5.41;100.00;99151.69;5192375;27;20062;-84
2024/04/16 04:55:21;;;;;;;13.07;4.70;;;;;;;5.51;100.00;99147.22;5168870;27;20019;-87
2024/04/16 04:57:51;;;;;;;12.93;4.50;;;;;;;5.51;100.00;99165.41;5205562;27;20007;-87
2024/04/16 05:00:29;;;;;;;8.88;4.00;;;;;;;5.57;100.00;99162.72;5229313;27;20012;-88
2024/04/16 05:02:55;;;;;;;9.65;4.00;;;;;;;5.52;100.00;99159.34;5203303;27;20087;-87
2024/04/16 05:05:24;;;;;;;10.98;5.22;;;;;;;5.57;100.00;99175.72;5193137;27;20003;-85
2024/04/16 05:07:53;;;;;;;13.13;4.03;;;;;;;5.61;100.00;99174.78;5237248;27;20011;-87
2024/04/16 05:10:21;;;;;;;11.23;4.20;;;;;;;5.65;100.00;99185.16;5226290;27;20020;-86
2024/04/16 05:12:47;;;;;;;5.75;3.42;;;;;;;5.67;100.00;99175.59;5251492;27;20022;-87
2024/04/16 05:15:15;;;;;;;7.00;3.25;;;;;;;5.63;100.00;99178.25;5216973;27;20022;-91
2024/04/16 05:17:41;;;;;;;7.32;3.40;;;;;;;5.70;100.00;99175.56;5222092;27;20014;-90
2024/04/16 05:20:11;;;;;;;5.45;2.70;;;;;;;5.67;100.00;99183.38;5206078;27;20360;-86
2024/04/16 05:22:37;;;;;;;9.13;3.53;;;;;;;5.72;100.00;99185.06;5223360;27;20016;-88
2024/04/16 05:25:06;;;;;;;9.75;3.38;;;;;;;5.71;100.00;99183.34;5204335;27;20090;-86
2024/04/16 05:27:32;;;;;;;7.72;2.65;;;;;;;5.75;100.00;99182.41;5169249;27;20085;-85
2024/04/16 05:32:41;;;;;;;5.63;3.38;;;;;;;5.74;100.00;99193.66;5232003;27;20016;-90
2024/04/16 05:35:08;;;;;;;5.72;2.78;;;;;;;5.78;100.00;99184.13;5203116;27;20022;-88
2024/04/16 05:37:39;;;;;;;6.07;2.47;;;;;;;5.76;100.00;99172.88;5216919;27;20012;-86
2024/04/16 05:40:08;;;;;;;7.63;2.63;;;;;;;5.82;100.00;99185.78;5204858;27;20459;-90
2024/04/16 05:42:40;;;;;;;5.95;2.72;;;;;;;5.85;100.00;99182.28;5192797;27;20019;-90
2024/04/16 05:45:07;;;;;;;7.10;2.40;;;;;;;5.81;100.00;99165.88;5200458;27;20026;-88
2024/04/16 05:47:42;;;;;;;6.95;2.13;;;;;;;5.85;100.00;99174.50;5251733;27;20020;-88
2024/04/16 05:50:14;;;;;;;4.30;2.30;;;;;;;5.92;100.00;99178.75;5400296;21;20002;-87
2024/04/16 05:52:52;;;;;;;4.93;2.10;;;;;;;5.93;100.00;99175.25;5252831;27;20055;-88
2024/04/16 05:55:22;;;;;;;7.05;2.88;;;;;;;6.02;100.00;99167.34;5220672;27;20091;-87
2024/04/16 05:57:58;;;;;;;7.70;2.55;;;;;;;6.06;100.00;99165.56;5261736;27;20055;-90
2024/04/16 06:00:27;;;;;;;4.88;2.60;;;;;;;6.16;100.00;99166.31;5207004;27;20026;-87
2024/04/16 06:02:55;;;;;;;5.80;1.92;;;;;;;6.22;100.00;99172.28;5252340;27;20368;-88
2024/04/16 06:05:25;;;;;;;9.23;2.85;;;;;;;6.32;100.00;99172.13;5222361;27;20015;-91
2024/04/16 06:07:58;;;;;;;5.32;2.55;;;;;;;6.33;99.36;99172.09;5207440;27;20015;-88
2024/04/16 06:10:30;;;;;;;4.35;2.50;;;;;;;6.41;98.82;99174.56;5252011;27;20007;-88
2024/04/16 06:12:58;;;;;;;2.92;1.73;;;;;;;6.35;98.38;99182.47;5225140;27;20010;-86
2024/04/16 06:15:29;;;;;;;7.93;3.03;;;;;;;6.37;99.00;99173.75;5224955;27;20007;-87
2024/04/16 06:17:55;;;;;;;4.68;2.72;;;;;;;6.35;98.96;99177.25;5256585;27;20062;-88
2024/04/16 06:20:23;;;;;;;4.22;2.28;;;;;;;6.48;99.11;99181.41;5226588;27;20026;-88
2024/04/16 06:22:49;;;;;;;6.45;2.38;;;;;;;6.41;96.54;99172.84;5232692;27;20436;-90
2024/04/16 06:25:18;;;;;;;2.42;2.22;;;;;;;6.41;96.39;99167.66;5256747;27;20011;-89
2024/04/16 06:27:51;;;;;;;7.07;2.45;;;;;;;6.52;96.06;99167.47;5231716;27;20011;-90
2024/04/16 06:30:20;;;;;;;4.60;2.50;;;;;;;6.48;93.67;99170.13;5228104;27;20030;-88
2024/04/16 06:32:51;;;;;;;5.20;2.10;;;;;;;6.49;94.41;99177.91;5203450;27;20241;-88
2024/04/16 06:35:19;;;;;;;7.10;2.70;;;;;;;6.45;94.57;99171.03;5226407;27;20021;-89
2024/04/16 06:37:44;;;;;;;5.38;2.30;;;;;;;6.29;94.81;99173.03;5195206;27;20018;-91
2024/04/16 06:40:16;;;;;;;4.13;2.65;;;;;;;6.28;94.04;99174.78;5199429;27;19998;-90
2024/04/16 06:42:42;;;;;;;3.70;2.35;;;;;;;6.28;93.47;99176.50;5196731;27;20007;-89
2024/04/16 06:45:11;;;;;;;3.95;2.67;;;;;;;6.21;93.67;99180.09;5192297;27;20010;-88
2024/04/16 06:47:36;;;;;;;7.32;2.95;;;;;;;6.26;94.00;99181.72;5192077;27;20041;-88
2024/04/16 06:50:05;;;;;;;4.78;2.17;;;;;;;6.26;94.52;99184.31;5237990;27;20023;-88
2024/04/16 06:52:32;;;;;;;5.10;3.05;;;;;;;6.27;94.09;99185.19;5224204;27;19999;-87
2024/04/16 06:55:02;;;;;;;3.75;2.30;;;;;;;6.27;94.38;99183.44;5188281;27;20016;-89
2024/04/16 06:57:55;;;;;;;5.22;2.10;;;;;;;6.23;94.92;99183.50;5251825;27;19998;-89
2024/04/16 07:00:24;;;;;;;4.53;2.28;;;;;;;6.20;95.90;99178.38;5203685;27;20051;-91
2024/04/16 07:02:50;;;;;;;4.40;2.30;;;;;;;6.26;96.09;99179.13;5227163;27;20094;-87
2024/04/16 07:05:18;;;;;;;2.70;2.28;;;;;;;6.27;96.46;99178.25;5226000;27;20236;-87
2024/04/16 07:07:44;;;;;;;2.80;1.75;;;;;;;6.41;95.43;99183.25;5220708;27;20015;-89
2024/04/16 07:10:13;;;;;;;5.30;1.90;;;;;;;6.40;95.02;99172.84;5250317;27;20023;-87
2024/04/16 07:12:39;;;;;;;5.32;2.38;;;;;;;6.58;94.57;99180.38;5196505;27;20007;-87
2024/04/16 07:15:08;;;;;;;7.05;2.97;;;;;;;6.50;94.87;99169.22;5231460;27;20015;-90
2024/04/16 07:23:14;;;;;;;3.53;2.10;;;;;;;6.55;93.77;99177.81;5248901;27;20050;-87
2024/04/16 07:25:43;;;;;;;2.83;1.90;;;;;;;6.67;92.53;99165.50;5370986;22;20022;-89
2024/04/16 07:28:12;;;;;;;2.50;2.10;;;;;;;6.78;91.69;99174.84;5213482;27;20049;-87
2024/04/16 07:30:37;;;;;;;5.13;2.15;;;;;;;6.93;92.05;99167.63;5213569;27;20063;-87
2024/04/16 07:33:09;;;;;;;4.03;1.98;;;;;;;7.32;90.64;99165.19;5210239;27;20023;-86
2024/04/16 07:35:35;;;;;;;3.72;2.15;;;;;;;7.56;89.30;99176.84;5180221;27;20079;-88
2024/04/16 07:38:03;;;;;;;3.72;2.42;;;;;;;7.44;88.01;99179.69;5243883;27;20011;-90
2024/04/16 07:40:32;;;;;;;2.15;1.60;;;;;;;11.36;69.11;99173.25;5194930;27;20016;-87
2024/04/16 07:43:00;;;;;;;3.85;2.08;;;;;;;12.85;60.89;99162.28;5209593;27;20055;-86
2024/04/16 07:45:28;;;;;;;1.58;1.45;;;;;;;13.19;57.45;99161.72;5212148;27;20000;-87
2024/04/16 07:47:58;;;;;;;3.15;2.22;;;;;;;11.74;60.91;99165.75;5239110;27;20019;-89
2024/04/16 07:50:24;;;;;;;3.22;1.70;;;;;;;9.98;67.71;99168.19;5187232;27;20027;-89
2024/04/16 07:52:52;;;;;;;2.33;2.17;;;;;;;9.56;68.99;99170.28;5220258;27;20011;-88
2024/04/16 07:55:18;;;;;;;2.60;2.08;;;;;;;10.63;67.51;99168.81;5178009;27;20027;-89
2024/04/16 07:57:46;;;;;;;2.05;1.95;;;;;;;10.84;66.52;99172.47;5210823;27;20016;-88
2024/04/16 08:00:13;;;;;;;4.15;1.83;;;;;;;10.45;67.93;99172.88;5183577;27;20012;-88
2024/04/16 08:02:41;;;;;;;5.03;2.30;;;;;;;9.76;68.76;99163.59;5183185;27;20088;-91
2024/04/16 08:05:07;;;;;;;2.95;1.80;;;;;;;9.42;71.25;99180.25;5201031;27;20014;-89
2024/04/16 08:07:35;;;;;;;3.85;1.77;;;;;;;8.61;74.01;99171.91;5197433;27;20016;-91
2024/04/16 08:10:03;;;;;;;3.83;1.45;;;;;;;10.16;68.08;99174.63;5188066;27;20562;-89
2024/04/16 08:12:31;;;;;;;2.50;1.58;;;;;;;9.95;67.76;99166.53;5169375;27;20023;-91
2024/04/16 08:14:59;;;;;;;2.10;1.63;;;;;;;10.22;68.02;99174.41;5185590;27;20775;-90
2024/04/16 08:17:27;;;;;;;1.38;1.15;;;;;;;9.63;68.51;99175.31;5185247;27;20008;-90
2024/04/16 08:19:53;;;;;;;1.83;1.70;;;;;;;8.89;71.88;99171.22;5156290;27;20035;-90
2024/04/16 08:22:21;;;;;;;1.83;1.73;;;;;;;8.81;72.85;99187.97;5181730;27;20044;-89
2024/04/16 08:24:50;;;;;;;3.80;1.77;;;;;;;8.63;73.46;99182.31;5181222;27;20005;-91
2024/04/16 08:27:25;;;;;;;6.82;1.77;;;;;;;8.54;74.22;99186.00;5205390;27;20016;-86
2024/04/16 08:29:51;;;;;;;2.72;1.52;;;;;;;8.52;75.37;99186.94;5183306;27;20016;-90
2024/04/16 08:32:22;;;;;;;3.13;1.80;;;;;;;8.61;74.04;99187.56;5215026;27;20041;-87
2024/04/16 08:34:48;;;;;;;4.68;2.03;;;;;;;8.68;74.00;99190.03;5157709;27;20024;-88
2024/04/16 08:37:20;;;;;;;2.85;2.03;;;;;;;8.85;73.67;99190.47;5237996;27;20140;-90
2024/04/16 08:39:45;;;;;;;2.70;1.55;;;;;;;8.66;73.27;99186.63;5182319;27;20018;-88
2024/04/16 08:42:16;;;;;;;2.92;1.92;;;;;;;9.33;71.15;99202.25;5190136;27;20467;-89
2024/04/16 08:44:43;;;;;;;3.70;1.20;;;;;;;10.01;66.47;99189.00;5207143;27;20346;-88
2024/04/16 08:47:13;;;;;;;1.15;1.02;;;;;;;10.93;63.78;99183.47;5184487;27;20000;-91
2024/04/16 08:49:40;;;;;;;2.75;1.65;;;;;;;10.71;64.60;99180.72;5182016;27;20087;-90
2024/04/16 08:52:10;;;;;;;2.10;1.10;;;;;;;10.23;66.35;99189.22;5183184;27;20004;-91
2024/04/16 08:54:38;;;;;;;6.50;1.38;;;;;;;10.78;63.51;99193.59;5189186;27;20012;-87
2024/04/16 08:57:07;;;;;;;2.42;1.20;;;;;;;9.74;66.84;99196.78;5201266;27;20024;-91
2024/04/16 08:59:33;;;;;;;2.55;1.00;;;;;;;9.42;68.59;99188.94;5183111;27;20008;-87
2024/04/16 09:02:03;;;;;;;2.17;1.17;;;;;;;9.39;69.36;99193.41;5234085;27;20022;-89
2024/04/16 09:04:36;;;;;;;1.38;1.27;;;;;;;9.48;69.58;99192.28;5183441;27;20008;-87
2024/04/16 09:07:09;;;;;;;2.53;0.88;;;;;;;9.40;67.37;99200.34;5211249;27;20016;-87
2024/04/16 09:09:35;;;;;;;2.33;0.90;;;;;;;8.96;69.42;99187.56;5185473;27;20027;-86
2024/04/16 09:12:05;;;;;;;2.28;1.45;;;;;;;8.92;69.91;99197.22;5208694;27;20023;-88
2024/04/16 09:14:34;;;;;;;2.08;0.70;;;;;;;9.02;69.73;99190.03;5180947;27;20016;-86
2024/04/16 09:17:06;;;;;;;2.17;1.67;;;;;;;9.16;69.57;99199.25;5210776;27;20022;-88
2024/04/16 09:19:32;;;;;;;2.00;1.23;;;;;;;9.84;67.36;99187.78;5185592;27;20016;-88
2024/04/16 09:22:01;;;;;;;2.08;0.80;;;;;;;10.68;65.83;99187.84;5187113;27;20010;-88
2024/04/16 09:24:27;;;;;;;1.00;0.80;;;;;;;11.91;60.46;99182.63;5214927;27;20113;-86
2024/04/16 09:26:55;;;;;;;3.60;0.85;;;;;;;11.46;59.65;99186.91;5182717;27;20031;-88
2024/04/16 09:29:24;;;;;;;0.82;0.82;;;;;;;10.83;61.75;99189.91;5163472;27;20020;-87
2024/04/16 09:32:03;;;;;;;1.40;1.30;;;;;;;10.55;63.09;99188.22;5189439;27;20039;-86
2024/04/16 09:34:33;;;;;;;3.83;0.70;;;;;;;10.36;63.68;99180.09;5168020;27;20024;-87
2024/04/16 09:37:02;;;;;;;0.70;0.70;;;;;;;10.10;64.19;99189.59;5188928;27;20048;-86
2024/04/16 09:39:28;;;;;;;3.40;0.90;;;;;;;9.80;65.92;99188.75;5210755;27;20020;-88
2024/04/16 09:41:57;;;;;;;2.47;1.08;;;;;;;9.57;66.17;99194.66;5210512;27;20005;-86
2024/04/16 09:44:28;;;;;;;1.13;0.90;;;;;;;9.67;66.89;99196.09;5195776;27;20012;-88
2024/04/16 09:47:01;;;;;;;1.15;0.90;;;;;;;10.04;65.60;99195.00;5192179;27;20014;-88
2024/04/16 09:49:28;;;;;;;1.80;0.90;;;;;;;10.66;64.43;99189.63;5216466;27;20008;-86
2024/04/16 09:52:00;;;;;;;0.80;0.70;;;;;;;10.72;63.37;99195.53;5191541;27;20019;-88
2024/04/16 09:54:26;;;;;;;1.48;0.70;;;;;;;12.57;58.51;99189.69;5158667;27;20004;-86
2024/04/16 09:56:55;;;;;;;1.65;0.80;;;;;;;13.85;54.99;99178.09;5178987;27;20095;-86
2024/04/16 09:59:23;;;;;;;1.50;0.70;;;;;;;16.04;49.47;99171.50;5207495;27;20167;-86
2024/04/16 10:01:53;;;;;;;1.98;1.70;;;;;;;15.68;48.95;99173.41;5186890;27;20011;-86
2024/04/16 10:04:19;;;;;;;0.47;0.47;;;;;;;14.72;50.38;99178.34;5184727;27;20016;-89
2024/04/16 10:06:49;;;;;;;3.03;0.70;;;;;;;14.30;51.72;99179.50;5180860;27;20915;-87
2024/04/16 10:09:17;;;;;;;2.40;1.25;;;;;;;13.40;53.01;99177.47;5208134;27;20027;-88
2024/04/16 10:11:49;;;;;;;1.85;1.48;;;;;;;12.36;54.59;99187.03;5195265;27;20027;-87
2024/04/16 10:14:18;;;;;;;2.47;0.75;;;;;;;12.08;56.78;99188.13;5212522;27;20016;-87
2024/04/16 10:16:49;;;;;;;1.73;0.65;;;;;;;11.66;58.11;99193.19;5180374;27;20012;-88
2024/04/16 10:19:16;;;;;;;3.80;1.35;;;;;;;11.50;58.57;99182.38;5185471;27;20017;-85
2024/04/16 10:21:49;;;;;;;2.83;1.40;;;;;;;11.07;58.47;99184.78;5176482;27;20027;-86
2024/04/16 10:24:19;;;;;;;2.58;0.80;;;;;;;10.82;59.21;99189.97;5205800;27;20008;-87
2024/04/16 10:26:51;;;;;;;2.40;1.13;;;;;;;10.61;60.25;99192.38;5207304;27;20412;-87
2024/04/16 10:29:23;;;;;;;4.88;1.17;;;;;;;10.77;59.93;99187.53;5197458;27;20118;-86
2024/04/16 10:31:58;;;;;;;3.58;0.88;;;;;;;10.73;60.36;99189.38;5208221;27;20024;-85
2024/04/16 10:34:26;;;;;;;1.67;0.68;;;;;;;10.72;60.41;99189.44;5203322;27;20012;-86
2024/04/16 10:36:57;;;;;;;1.38;0.85;;;;;;;10.78;60.10;99199.72;5204964;27;20031;-86
2024/04/16 10:39:31;;;;;;;1.27;0.90;;;;;;;10.78;60.19;99197.09;5158381;27;20068;-86
2024/04/16 10:42:03;;;;;;;2.95;1.05;;;;;;;10.39;61.52;99200.94;5178433;27;21163;-85
2024/04/16 10:44:28;;;;;;;2.00;1.27;;;;;;;10.37;61.46;99205.34;5181441;27;20012;-86
2024/04/16 10:47:00;;;;;;;2.15;0.80;;;;;;;10.24;61.71;99207.47;5198903;27;20064;-86
2024/04/16 10:49:27;;;;;;;2.05;0.60;;;;;;;10.10;61.78;99212.25;5204800;27;20020;-88
2024/04/16 10:51:56;;;;;;;1.30;0.50;;;;;;;10.14;62.58;99208.66;5206136;27;20477;-88
2024/04/16 10:54:22;;;;;;;1.55;0.50;;;;;;;9.93;63.25;99218.00;5206814;27;20008;-87
2024/04/16 10:56:52;;;;;;;1.90;0.55;;;;;;;9.82;64.46;99218.31;5186038;27;20018;-88
2024/04/16 10:59:19;;;;;;;0.85;0.40;;;;;;;9.51;66.82;99231.41;5183174;27;20012;-88
2024/04/16 11:01:49;;;;;;;0.65;0.60;;;;;;;9.27;70.00;99226.78;5158348;27;20108;-88
2024/04/16 11:04:17;;;;;;;3.15;0.80;;;;;;;9.00;75.65;99235.34;5225101;27;20000;-87
2024/04/16 11:06:48;;;;;;;0.80;0.80;;;;;;;8.87;79.30;99242.63;5205526;27;20092;-87
2024/04/16 11:09:15;;;;;;;1.33;1.10;;;;;;;8.84;84.14;99242.69;5177860;27;20488;-88
2024/04/16 11:11:44;;;;;;;1.30;0.90;;;;;;;9.12;82.09;99245.47;5182741;27;20008;-86
2024/04/16 11:14:10;;;;;;;1.00;0.90;;;;;;;9.45;81.36;99242.84;5183504;27;20007;-88
2024/04/16 11:16:39;;;;;;;0.55;0.55;;;;;;;9.56;78.83;99239.97;5208184;27;20028;-88
2024/04/16 11:19:04;;;;;;;2.30;1.10;;;;;;;9.93;79.35;99246.75;5206074;27;20055;-87
2024/04/16 11:21:34;;;;;;;1.90;0.80;;;;;;;10.02;81.70;99246.47;5151942;27;20008;-86
2024/04/16 11:24:04;;;;;;;0.77;0.70;;;;;;;10.13;77.17;99245.31;5153161;27;20064;-87
2024/04/16 11:26:32;;;;;;;0.95;0.82;;;;;;;10.32;77.51;99243.84;5207523;27;20023;-87
2024/04/16 11:29:02;;;;;;;1.80;0.57;;;;;;;10.36;77.43;99252.50;5178021;27;20013;-87
2024/04/16 11:31:33;;;;;;;1.98;1.30;;;;;;;10.17;76.79;99253.03;5180503;27;20077;-87
2024/04/16 11:33:59;;;;;;;1.27;1.17;;;;;;;10.18;77.77;99249.53;5207570;27;20021;-87
2024/04/16 11:36:27;;;;;;;0.98;0.90;;;;;;;10.07;79.27;99256.81;5182002;27;20016;-86
2024/04/16 11:38:53;;;;;;;3.35;0.80;;;;;;;10.28;78.80;99252.69;5163531;27;20027;-86
2024/04/16 11:41:22;;;;;;;1.05;0.82;;;;;;;10.47;78.22;99258.25;5200108;27;20017;-87
2024/04/16 11:43:48;;;;;;;1.17;0.95;;;;;;;10.60;78.35;99261.34;5202893;27;20125;-86
2024/04/16 11:46:17;;;;;;;2.42;0.98;;;;;;;10.36;77.10;99262.97;5176620;27;20474;-86
2024/04/16 11:48:45;;;;;;;5.15;1.15;;;;;;;10.45;81.92;99275.75;5171290;27;20013;-87
2024/04/16 11:51:16;;;;;;;0.57;0.57;;;;;;;10.54;79.93;99267.63;5211510;27;20023;-86
2024/04/16 11:53:43;;;;;;;0.95;0.50;;;;;;;11.05;77.57;99273.84;5179757;27;20009;-86